createdAt,value
2018-07-19T00:02:02.844Z,2.57
2018-07-19T00:04:30.146Z,2.23
2018-07-19T00:06:57.432Z,1.97
2018-07-19T00:09:24.965Z,2.17
2018-07-19T00:11:52.229Z,2.80
2018-07-19T00:14:19.513Z,2.43
2018-07-19T00:16:46.780Z,2.87
2018-07-19T00:19:14.056Z,2.60
2018-07-19T00:21:41.372Z,2.10
2018-07-19T00:24:08.628Z,2.53
2018-07-19T00:26:35.924Z,2.20
2018-07-19T00:29:03.224Z,2.20
2018-07-19T00:31:30.520Z,2.37
2018-07-19T00:33:57.814Z,2.30
2018-07-19T00:36:25.062Z,2.23
2018-07-19T00:38:52.344Z,2.30
2018-07-19T00:41:19.632Z,2.30
2018-07-19T00:43:46.908Z,2.37
2018-07-19T00:46:14.177Z,2.27
2018-07-19T00:48:41.476Z,2.40
2018-07-19T00:51:08.766Z,2.37
2018-07-19T00:53:36.041Z,2.30
2018-07-19T00:56:03.345Z,2.60
2018-07-19T00:58:30.645Z,2.03
2018-07-19T01:00:57.908Z,2.60
2018-07-19T01:03:25.197Z,2.83
2018-07-19T01:05:52.485Z,2.60
2018-07-19T01:08:19.810Z,2.40
2018-07-19T01:10:47.332Z,2.83
2018-07-19T01:13:14.660Z,2.60
2018-07-19T01:15:41.936Z,2.83
2018-07-19T01:18:09.204Z,2.63
2018-07-19T01:20:36.496Z,2.40
2018-07-19T01:23:03.765Z,2.50
2018-07-19T01:25:31.045Z,2.57
2018-07-19T01:27:58.308Z,2.30
2018-07-19T01:30:25.664Z,2.93
2018-07-19T01:32:52.936Z,2.60
2018-07-19T01:35:20.221Z,2.80
2018-07-19T01:37:47.521Z,3.37
2018-07-19T01:40:14.792Z,2.87
2018-07-19T01:42:44.092Z,3.10
2018-07-19T01:45:12.060Z,4.07
2018-07-19T01:47:39.637Z,3.60
2018-07-19T01:50:07.146Z,3.50
2018-07-19T01:52:34.476Z,2.87
2018-07-19T01:55:01.742Z,3.00
2018-07-19T01:57:29.036Z,2.63
2018-07-19T01:59:56.348Z,2.43
2018-07-19T02:02:23.629Z,2.60
2018-07-19T02:04:50.913Z,2.80
2018-07-19T02:07:18.268Z,2.93
2018-07-19T02:09:45.547Z,2.77
2018-07-19T02:12:13.065Z,3.30
2018-07-19T02:14:40.488Z,3.10
2018-07-19T02:17:07.800Z,3.13
2018-07-19T02:19:35.120Z,2.90
2018-07-19T02:22:02.424Z,3.57
2018-07-19T02:24:29.697Z,3.30
2018-07-19T02:26:56.964Z,3.40
2018-07-19T02:29:24.237Z,3.40
2018-07-19T02:31:51.579Z,2.93
2018-07-19T02:34:18.868Z,3.80
2018-07-19T02:36:46.213Z,4.03
2018-07-19T02:39:14.056Z,3.43
2018-07-19T02:41:41.464Z,3.57
2018-07-19T02:44:09.824Z,3.40
2018-07-19T02:46:38.352Z,3.60
2018-07-19T02:49:05.979Z,3.27
2018-07-19T02:51:33.284Z,3.87
2018-07-19T02:54:00.552Z,3.60
2018-07-19T02:56:27.828Z,4.30
2018-07-19T02:58:55.097Z,4.07
2018-07-19T03:01:22.376Z,4.20
2018-07-19T03:03:49.653Z,4.50
2018-07-19T03:06:17.814Z,3.70
2018-07-19T03:08:45.078Z,3.70
2018-07-19T03:11:12.460Z,3.90
2018-07-19T03:13:39.948Z,4.47
2018-07-19T03:16:07.256Z,4.13
2018-07-19T03:18:34.552Z,4.07
2018-07-19T03:21:01.854Z,4.13
2018-07-19T03:23:29.423Z,4.30
2018-07-19T03:25:56.716Z,4.53
2018-07-19T03:28:24.035Z,4.60
2018-07-19T03:30:51.366Z,4.60
2018-07-19T03:33:18.784Z,4.80
2018-07-19T03:35:46.072Z,4.67
2018-07-19T03:38:13.361Z,4.13
2018-07-19T03:40:40.677Z,4.53
2018-07-19T03:43:07.944Z,4.60
2018-07-19T03:45:35.252Z,5.07
2018-07-19T03:48:02.572Z,5.53
2018-07-19T03:50:30.136Z,5.17
2018-07-19T03:52:57.398Z,4.70
2018-07-19T03:55:24.665Z,4.83
2018-07-19T03:57:52.068Z,4.90
2018-07-19T04:00:19.360Z,4.90
2018-07-19T04:02:46.634Z,4.40
2018-07-19T04:05:13.920Z,4.17
2018-07-19T04:07:41.202Z,4.20
2018-07-19T04:10:08.481Z,4.23
2018-07-19T04:12:35.769Z,4.13
2018-07-19T04:15:03.233Z,3.80
2018-07-19T04:17:30.529Z,4.10
2018-07-19T04:19:57.852Z,3.87
2018-07-19T04:22:25.106Z,4.03
2018-07-19T04:24:52.653Z,4.00
2018-07-19T04:27:20.092Z,2.90
2018-07-19T04:29:47.364Z,3.57
2018-07-19T04:32:15.033Z,3.63
2018-07-19T04:34:42.476Z,4.20
2018-07-19T04:37:09.804Z,3.40
2018-07-19T04:39:37.064Z,3.83
2018-07-19T04:42:04.352Z,4.00
2018-07-19T04:44:31.641Z,3.73
2018-07-19T04:46:59.784Z,4.27
2018-07-19T04:49:30.692Z,4.10
2018-07-19T04:51:58.388Z,4.40
2018-07-19T04:54:25.739Z,3.70
2018-07-19T04:56:53.076Z,3.97
2018-07-19T04:59:20.359Z,4.13
2018-07-19T05:01:47.722Z,3.50
2018-07-19T05:04:14.968Z,4.00
2018-07-19T05:06:42.248Z,3.90
2018-07-19T05:09:10.331Z,5.20
2018-07-19T05:11:37.817Z,4.23
2018-07-19T05:14:05.297Z,4.03
2018-07-19T05:16:33.067Z,4.40
2018-07-19T05:19:00.852Z,4.37
2018-07-19T05:21:28.160Z,4.43
2018-07-19T05:23:55.497Z,4.57
2018-07-19T05:26:22.781Z,4.80
2018-07-19T05:28:50.053Z,5.07
2018-07-19T05:31:17.341Z,4.63
2018-07-19T05:33:44.668Z,5.10
2018-07-19T05:36:11.991Z,5.27
2018-07-19T05:38:39.576Z,4.90
2018-07-19T05:41:07.340Z,5.50
2018-07-19T05:43:34.632Z,6.07
2018-07-19T05:46:01.928Z,5.10
2018-07-19T05:48:29.248Z,4.93
2018-07-19T05:50:56.564Z,4.07
2018-07-19T05:53:23.883Z,5.37
2018-07-19T05:55:51.161Z,6.07
2018-07-19T05:58:18.906Z,4.77
2018-07-19T06:00:46.172Z,5.77
2018-07-19T06:03:13.440Z,4.33
2018-07-19T06:05:40.732Z,4.27
2018-07-19T06:08:08.033Z,4.63
2018-07-19T06:10:35.338Z,4.60
2018-07-19T06:13:02.668Z,4.77
2018-07-19T06:15:29.942Z,4.13
2018-07-19T06:17:57.394Z,4.40
2018-07-19T06:20:24.661Z,3.50
2018-07-19T06:22:51.940Z,2.80
2018-07-19T06:25:19.208Z,2.63
2018-07-19T06:27:46.554Z,3.07
2018-07-19T06:30:13.844Z,3.47
2018-07-19T06:32:41.130Z,2.87
2018-07-19T06:35:08.392Z,3.63
2018-07-19T06:37:35.705Z,3.23
2018-07-19T06:40:03.456Z,2.90
2018-07-19T06:42:30.720Z,3.00
2018-07-19T06:44:58.244Z,2.97
2018-07-19T06:47:25.524Z,3.30
2018-07-19T06:49:52.832Z,2.90
2018-07-19T06:52:20.120Z,3.43
2018-07-19T06:54:47.388Z,3.00
2018-07-19T06:57:14.713Z,3.63
2018-07-19T06:59:41.979Z,3.10
2018-07-19T07:02:09.276Z,2.97
2018-07-19T07:04:36.576Z,3.03
2018-07-19T07:07:04.219Z,3.37
2018-07-19T07:09:31.492Z,2.73
2018-07-19T07:11:58.794Z,3.00
2018-07-19T07:14:26.112Z,3.53
2018-07-19T07:16:53.409Z,2.13
2018-07-19T07:19:20.864Z,2.70
2018-07-19T07:21:48.175Z,3.20
2018-07-19T07:24:15.496Z,3.43
2018-07-19T07:26:42.827Z,2.87
2018-07-19T07:29:10.095Z,3.50
2018-07-19T07:31:37.408Z,2.63
2018-07-19T07:34:04.712Z,2.80
2018-07-19T07:36:32.020Z,2.73
2018-07-19T07:38:59.308Z,2.73
2018-07-19T07:41:26.620Z,2.90
2018-07-19T07:43:53.914Z,3.00
2018-07-19T07:46:21.196Z,2.87
2018-07-19T07:48:48.496Z,2.80
2018-07-19T07:51:15.834Z,2.60
2018-07-19T07:53:43.097Z,3.40
2018-07-19T07:56:10.420Z,2.33
2018-07-19T07:58:37.728Z,2.40
2018-07-19T08:01:04.996Z,2.43
2018-07-19T08:03:32.316Z,2.83
2018-07-19T08:05:59.572Z,2.83
2018-07-19T08:08:26.912Z,3.60
2018-07-19T08:10:54.233Z,3.77
2018-07-19T08:13:21.536Z,3.40
2018-07-19T08:15:48.875Z,2.70
2018-07-19T08:18:16.182Z,3.10
2018-07-19T08:20:43.716Z,2.70
2018-07-19T08:23:11.062Z,3.33
2018-07-19T08:25:38.308Z,4.17
2018-07-19T08:28:05.596Z,3.00
2018-07-19T08:30:32.949Z,3.20
2018-07-19T08:33:00.245Z,2.97
2018-07-19T08:35:27.517Z,2.70
2018-07-19T08:37:54.792Z,2.70
2018-07-19T08:40:22.076Z,2.53
2018-07-19T08:42:49.345Z,2.13
2018-07-19T08:45:16.607Z,2.50
2018-07-19T08:47:43.888Z,2.20
2018-07-19T08:50:11.180Z,2.63
2018-07-19T08:52:38.499Z,2.77
2018-07-19T08:55:05.760Z,2.07
2018-07-19T08:57:33.037Z,2.90
2018-07-19T09:00:00.340Z,2.50
2018-07-19T09:02:27.617Z,2.57
2018-07-19T09:04:54.938Z,3.03
2018-07-19T09:07:22.215Z,2.40
2018-07-19T09:09:49.524Z,2.30
2018-07-19T09:12:16.796Z,2.80
2018-07-19T09:14:44.129Z,2.47
2018-07-19T09:17:11.417Z,2.53
2018-07-19T09:19:38.775Z,2.40
2018-07-19T09:22:06.140Z,2.20
2018-07-19T09:24:33.426Z,2.80
2018-07-19T09:27:00.712Z,2.33
2018-07-19T09:29:27.999Z,2.80
2018-07-19T09:31:55.292Z,3.20
2018-07-19T09:34:22.560Z,2.70
2018-07-19T09:36:49.917Z,2.77
2018-07-19T09:39:17.204Z,2.83
2018-07-19T09:41:44.491Z,2.90
2018-07-19T09:44:11.741Z,2.20
2018-07-19T09:46:39.024Z,2.63
2018-07-19T09:49:06.328Z,2.27
2018-07-19T09:51:33.896Z,2.30
2018-07-19T09:54:01.457Z,2.70
2018-07-19T09:56:28.892Z,2.50
2018-07-19T09:58:56.188Z,2.47
2018-07-19T10:01:23.457Z,2.93
2018-07-19T10:03:51.412Z,2.63
2018-07-19T10:06:18.976Z,2.60
2018-07-19T10:08:46.284Z,2.33
2018-07-19T10:11:13.797Z,2.07
2018-07-19T10:13:41.074Z,2.60
2018-07-19T10:16:08.437Z,2.53
2018-07-19T10:18:35.713Z,2.50
2018-07-19T10:21:03.140Z,2.33
2018-07-19T10:23:30.799Z,2.70
2018-07-19T10:25:58.080Z,2.60
2018-07-19T10:28:25.368Z,2.70
2018-07-19T10:30:52.665Z,2.47
2018-07-19T10:33:19.941Z,2.50
2018-07-19T10:35:47.256Z,2.27
2018-07-19T10:38:14.512Z,2.17
2018-07-19T10:40:41.830Z,3.00
2018-07-19T10:43:09.092Z,2.20
2018-07-19T10:45:36.380Z,2.83
2018-07-19T10:48:03.674Z,2.70
2018-07-19T10:50:30.984Z,2.97
2018-07-19T10:52:58.272Z,2.50
2018-07-19T10:55:25.777Z,3.43
2018-07-19T10:57:53.041Z,2.60
2018-07-19T11:00:20.304Z,2.23
2018-07-19T11:02:47.600Z,2.33
2018-07-19T11:05:14.828Z,3.03
2018-07-19T11:07:42.093Z,2.90
2018-07-19T11:10:09.366Z,2.60
2018-07-19T11:12:36.632Z,3.07
2018-07-19T11:15:03.912Z,3.10
2018-07-19T11:17:31.188Z,3.07
2018-07-19T11:19:58.451Z,3.30
2018-07-19T11:22:25.706Z,2.93
2018-07-19T11:24:53.236Z,3.40
2018-07-19T11:27:20.497Z,2.80
2018-07-19T11:29:47.781Z,3.27
2018-07-19T11:32:15.253Z,2.77
2018-07-19T11:34:42.520Z,3.20
2018-07-19T11:37:09.777Z,2.73
2018-07-19T11:39:37.029Z,3.07
2018-07-19T11:42:04.313Z,3.20
2018-07-19T11:44:31.591Z,3.60
2018-07-19T11:46:58.864Z,4.23
2018-07-19T11:49:26.124Z,3.00
2018-07-19T11:51:53.420Z,3.20
2018-07-19T11:54:20.681Z,3.40
2018-07-19T11:56:47.949Z,4.00
2018-07-19T11:59:15.201Z,3.10
2018-07-19T12:01:42.534Z,3.77
2018-07-19T12:04:09.756Z,2.93
2018-07-19T12:06:37.032Z,3.13
2018-07-19T12:09:06.124Z,3.80
2018-07-19T12:11:33.436Z,3.20
2018-07-19T12:14:00.700Z,4.30
2018-07-19T12:16:27.984Z,4.03
2018-07-19T12:18:55.268Z,3.70
2018-07-19T12:21:22.562Z,6.70
2018-07-19T12:23:49.844Z,20.13
2018-07-19T12:26:17.321Z,18.13
2018-07-19T12:28:44.604Z,14.20
2018-07-19T12:31:11.892Z,15.50
2018-07-19T12:33:39.164Z,12.83
2018-07-19T12:36:06.474Z,24.60
2018-07-19T12:38:34.627Z,20.63
2018-07-19T12:41:01.908Z,8.03
2018-07-19T12:43:29.184Z,4.67
2018-07-19T12:45:56.480Z,3.77
2018-07-19T12:48:23.736Z,3.87
2018-07-19T12:50:50.996Z,4.10
2018-07-19T12:53:18.269Z,4.73
2018-07-19T12:55:45.540Z,3.43
2018-07-19T12:58:12.808Z,3.73
2018-07-19T13:00:40.064Z,3.57
2018-07-19T13:03:07.325Z,3.80
2018-07-19T13:05:34.588Z,3.93
2018-07-19T13:08:01.876Z,5.40
2018-07-19T13:10:29.133Z,4.53
2018-07-19T13:12:56.684Z,5.70
2018-07-19T13:15:24.546Z,6.00
2018-07-19T13:17:51.852Z,4.33
2018-07-19T13:20:19.131Z,4.00
2018-07-19T13:22:46.396Z,3.73
2018-07-19T13:25:13.661Z,3.80
2018-07-19T13:27:41.132Z,3.17
2018-07-19T13:30:08.431Z,4.33
2018-07-19T13:32:35.688Z,4.60
2018-07-19T13:35:02.968Z,3.33
2018-07-19T13:37:30.245Z,4.00
2018-07-19T13:39:57.496Z,4.10
2018-07-19T13:42:24.776Z,3.80
2018-07-19T13:44:52.036Z,3.67
2018-07-19T13:47:19.300Z,3.20
2018-07-19T13:49:46.576Z,3.80
2018-07-19T13:52:13.907Z,3.20
2018-07-19T13:54:42.360Z,3.80
2018-07-19T13:57:09.648Z,3.37
2018-07-19T13:59:36.934Z,2.93
2018-07-19T14:02:04.252Z,3.13
2018-07-19T14:04:31.520Z,2.87
2018-07-19T14:06:58.790Z,3.50
2018-07-19T14:09:26.074Z,3.30
2018-07-19T14:11:53.345Z,3.80
2018-07-19T14:14:20.605Z,3.17
2018-07-19T14:16:47.912Z,3.13
2018-07-19T14:19:15.190Z,3.23
2018-07-19T14:21:42.454Z,3.40
2018-07-19T14:24:09.744Z,3.15
2018-07-19T14:26:37.024Z,3.73
2018-07-19T14:29:04.699Z,3.23
2018-07-19T14:31:32.246Z,3.23
2018-07-19T14:33:59.512Z,3.47
2018-07-19T14:36:26.788Z,4.17
2018-07-19T14:38:54.056Z,3.60
2018-07-19T14:41:21.348Z,3.67
2018-07-19T14:43:48.623Z,3.50
2018-07-19T14:46:15.883Z,3.77
2018-07-19T14:48:43.161Z,2.83
2018-07-19T14:51:10.820Z,3.03
2018-07-19T14:53:38.108Z,3.07
2018-07-19T14:56:05.431Z,2.67
2018-07-19T14:58:32.684Z,3.20
2018-07-19T15:00:59.966Z,3.57
2018-07-19T15:03:27.281Z,2.67
2018-07-19T15:05:54.548Z,2.70
2018-07-19T15:08:21.830Z,2.40
2018-07-19T15:10:49.144Z,2.23
2018-07-19T15:13:17.499Z,2.40
2018-07-19T15:15:43.680Z,2.30
2018-07-19T15:18:10.970Z,2.00
2018-07-19T15:20:38.262Z,3.20
2018-07-19T15:23:05.684Z,2.20
2018-07-19T15:25:33.009Z,3.53
2018-07-19T15:28:00.415Z,3.00
2018-07-19T15:30:27.928Z,2.20
2018-07-19T15:32:55.204Z,2.80
2018-07-19T15:35:22.472Z,2.57
2018-07-19T15:37:49.816Z,4.20
2018-07-19T15:40:17.204Z,2.40
2018-07-19T15:42:44.496Z,2.50
2018-07-19T15:45:11.752Z,1.83
2018-07-19T15:47:39.013Z,2.33
2018-07-19T15:50:06.306Z,2.20
2018-07-19T15:52:33.561Z,1.90
2018-07-19T15:55:00.956Z,2.53
2018-07-19T15:57:28.308Z,3.00
2018-07-19T15:59:55.739Z,3.50
2018-07-19T16:02:23.017Z,3.10
2018-07-19T16:04:50.404Z,3.20
2018-07-19T16:07:17.688Z,2.50
2018-07-19T16:09:44.945Z,2.57
2018-07-19T16:12:12.224Z,2.93
2018-07-19T16:14:39.652Z,3.27
2018-07-19T16:17:07.100Z,2.27
2018-07-19T16:19:34.400Z,2.63
2018-07-19T16:22:01.692Z,2.40
2018-07-19T16:24:28.956Z,2.73
2018-07-19T16:26:56.233Z,3.10
2018-07-19T16:29:23.484Z,4.00
2018-07-19T16:31:50.970Z,2.60
2018-07-19T16:34:18.250Z,2.43
2018-07-19T16:36:45.512Z,2.03
2018-07-19T16:39:12.776Z,3.07
2018-07-19T16:41:40.069Z,2.03
2018-07-19T16:44:07.764Z,2.33
2018-07-19T16:46:35.225Z,2.50
2018-07-19T16:49:02.500Z,2.80
2018-07-19T16:51:30.240Z,2.20
2018-07-19T16:53:57.520Z,2.40
2018-07-19T16:56:24.973Z,3.00
2018-07-19T16:58:52.325Z,2.30
2018-07-19T17:01:19.600Z,2.53
2018-07-19T17:03:46.860Z,2.33
2018-07-19T17:06:14.188Z,2.27
2018-07-19T17:08:41.485Z,2.20
2018-07-19T17:11:08.783Z,2.00
2018-07-19T17:13:36.084Z,1.97
2018-07-19T17:16:03.556Z,2.07
2018-07-19T17:18:30.892Z,1.83
2018-07-19T17:20:58.284Z,2.03
2018-07-19T17:23:25.607Z,1.77
2018-07-19T17:25:52.900Z,2.50
2018-07-19T17:28:20.178Z,2.70
2018-07-19T17:30:47.444Z,2.23
2018-07-19T17:33:15.059Z,2.07
2018-07-19T17:35:42.419Z,2.03
2018-07-19T17:38:09.924Z,1.60
2018-07-19T17:40:37.215Z,2.13
2018-07-19T17:43:04.709Z,3.10
2018-07-19T17:45:31.985Z,2.93
2018-07-19T17:47:59.288Z,4.30
2018-07-19T17:50:26.564Z,2.33
2018-07-19T17:52:53.908Z,1.83
2018-07-19T17:55:21.200Z,1.97
2018-07-19T17:57:48.476Z,2.00
2018-07-19T18:00:15.775Z,2.50
2018-07-19T18:02:43.067Z,2.37
2018-07-19T18:05:10.338Z,1.93
2018-07-19T18:07:37.592Z,2.10
2018-07-19T18:10:04.897Z,2.20
2018-07-19T18:12:32.199Z,1.57
2018-07-19T18:14:59.460Z,2.10
2018-07-19T18:17:26.737Z,2.30
2018-07-19T18:19:54.005Z,1.70
2018-07-19T18:22:21.313Z,1.80
2018-07-19T18:24:48.577Z,1.50
2018-07-19T18:27:15.848Z,2.13
2018-07-19T18:29:43.145Z,3.60
2018-07-19T18:32:10.450Z,2.07
2018-07-19T18:34:37.876Z,2.00
2018-07-19T18:37:07.567Z,2.03
2018-07-19T18:39:36.332Z,2.07
2018-07-19T18:42:05.023Z,2.30
2018-07-19T18:44:32.800Z,2.27
2018-07-19T18:47:00.164Z,2.63
2018-07-19T18:49:27.453Z,2.07
2018-07-19T18:51:54.748Z,1.90
2018-07-19T18:54:22.009Z,1.67
2018-07-19T18:56:49.302Z,2.40
2018-07-19T18:59:16.672Z,2.30
2018-07-19T19:01:43.936Z,2.00
2018-07-19T19:04:11.200Z,2.83
2018-07-19T19:06:38.515Z,2.10
2018-07-19T19:09:06.693Z,1.90
2018-07-19T19:11:34.000Z,2.13
2018-07-19T19:14:01.381Z,2.20
2018-07-19T19:16:28.661Z,3.30
2018-07-19T19:18:55.937Z,2.30
2018-07-19T19:21:23.204Z,2.33
2018-07-19T19:23:50.460Z,2.10
2018-07-19T19:26:17.768Z,2.40
2018-07-19T19:28:45.033Z,1.57
2018-07-19T19:31:12.301Z,1.57
2018-07-19T19:33:39.605Z,2.17
2018-07-19T19:36:07.024Z,1.60
2018-07-19T19:38:34.306Z,1.97
2018-07-19T19:41:01.589Z,2.00
2018-07-19T19:43:28.860Z,2.10
2018-07-19T19:45:56.229Z,1.97
2018-07-19T19:48:23.505Z,1.83
2018-07-19T19:50:50.768Z,1.87
2018-07-19T19:53:18.077Z,2.30
2018-07-19T19:55:45.364Z,2.23
2018-07-19T19:58:12.660Z,1.97
2018-07-19T20:00:39.948Z,2.27
2018-07-19T20:03:07.300Z,2.00
2018-07-19T20:05:34.591Z,2.50
2018-07-19T20:08:01.880Z,1.70
2018-07-19T20:10:29.140Z,1.87
2018-07-19T20:12:56.400Z,2.47
2018-07-19T20:15:23.722Z,1.63
2018-07-19T20:17:51.045Z,1.87
2018-07-19T20:20:18.268Z,2.13
2018-07-19T20:22:45.545Z,2.43
2018-07-19T20:25:12.940Z,2.13
2018-07-19T20:27:40.244Z,2.67
2018-07-19T20:30:07.525Z,2.13
2018-07-19T20:32:34.789Z,1.83
2018-07-19T20:35:02.061Z,1.93
2018-07-19T20:37:29.688Z,1.70
2018-07-19T20:39:57.024Z,2.47
2018-07-19T20:42:24.368Z,1.83
2018-07-19T20:44:51.620Z,1.90
2018-07-19T20:47:18.876Z,2.07
2018-07-19T20:49:46.240Z,2.27
2018-07-19T20:52:13.628Z,2.20
2018-07-19T20:54:41.060Z,1.90
2018-07-19T20:57:08.348Z,2.17
2018-07-19T20:59:35.803Z,1.93
2018-07-19T21:02:03.076Z,2.10
2018-07-19T21:04:30.664Z,2.20
2018-07-19T21:06:57.932Z,2.10
2018-07-19T21:09:25.203Z,2.70
2018-07-19T21:11:52.481Z,1.97
2018-07-19T21:14:19.772Z,1.90
2018-07-19T21:16:47.048Z,2.13
2018-07-19T21:19:14.316Z,1.70
2018-07-19T21:21:41.595Z,2.10
2018-07-19T21:24:08.968Z,2.23
2018-07-19T21:26:36.241Z,2.00
2018-07-19T21:29:03.513Z,2.30
2018-07-19T21:31:30.791Z,1.77
2018-07-19T21:33:58.068Z,1.67
2018-07-19T21:36:25.369Z,2.03
2018-07-19T21:38:52.844Z,2.03
2018-07-19T21:41:20.136Z,1.70
2018-07-19T21:43:47.399Z,1.60
2018-07-19T21:46:14.664Z,2.10
2018-07-19T21:48:41.920Z,1.80
2018-07-19T21:51:09.357Z,1.93
2018-07-19T21:53:36.632Z,1.73
2018-07-19T21:56:03.905Z,1.53
2018-07-19T21:58:31.172Z,2.00
2018-07-19T22:01:04.137Z,1.87
2018-07-19T22:03:31.401Z,1.73
2018-07-19T22:05:58.682Z,1.83
2018-07-19T22:08:25.948Z,1.70
2018-07-19T22:10:53.380Z,1.23
2018-07-19T22:13:20.812Z,2.17
2018-07-19T22:15:48.212Z,1.43
2018-07-19T22:18:15.652Z,2.10
2018-07-19T22:20:43.056Z,1.77
2018-07-19T22:23:10.480Z,1.57
2018-07-19T22:25:37.859Z,2.30
2018-07-19T22:28:05.260Z,1.57
2018-07-19T22:30:32.704Z,1.80
2018-07-19T22:33:00.129Z,1.97
2018-07-19T22:35:27.604Z,1.80
2018-07-19T22:37:55.008Z,2.00
2018-07-19T22:40:22.662Z,2.03
2018-07-19T22:42:50.056Z,1.70
2018-07-19T22:45:17.681Z,2.03
2018-07-19T22:47:45.151Z,1.90
2018-07-19T22:50:12.725Z,1.77
2018-07-19T22:52:40.156Z,1.67
2018-07-19T22:55:07.570Z,1.63
2018-07-19T22:57:34.984Z,1.40
2018-07-19T23:00:02.417Z,1.90
2018-07-19T23:02:29.808Z,2.17
2018-07-19T23:04:57.252Z,1.97
2018-07-19T23:07:24.688Z,2.33
2018-07-19T23:09:52.097Z,2.10
2018-07-19T23:12:19.525Z,1.70
2018-07-19T23:17:12.944Z,2.07
2018-07-19T23:19:40.337Z,2.00
2018-07-19T23:22:07.741Z,1.93
2018-07-19T23:24:35.140Z,2.40
2018-07-19T23:27:02.724Z,2.43
2018-07-19T23:29:30.155Z,1.90
2018-07-19T23:31:57.616Z,1.77
2018-07-19T23:34:25.073Z,2.00
2018-07-19T23:36:57.703Z,2.60
2018-07-19T23:39:28.552Z,1.70
2018-07-19T23:42:01.766Z,1.87
2018-07-19T23:44:35.128Z,1.93
2018-07-19T23:47:06.472Z,1.93
2018-07-19T23:49:33.898Z,1.40
2018-07-19T23:52:01.288Z,2.00
2018-07-19T23:54:28.720Z,2.10
2018-07-19T23:56:56.171Z,2.13
2018-07-19T23:59:23.577Z,2.03
